createdAt,value
2019-05-09T00:02:03.726Z,79.36
2019-05-09T00:04:34.688Z,78.91
2019-05-09T00:07:05.980Z,80.01
2019-05-09T00:09:34.437Z,80.23
2019-05-09T00:12:05.923Z,80.06
2019-05-09T00:14:35.286Z,79.89
2019-05-09T00:17:03.944Z,79.42
2019-05-09T00:19:33.337Z,79.58
2019-05-09T00:22:03.249Z,79.60
2019-05-09T00:24:33.241Z,80.02
2019-05-09T00:27:03.876Z,79.55
2019-05-09T00:29:37.288Z,79.61
2019-05-09T00:32:10.025Z,79.51
2019-05-09T00:34:40.095Z,78.82
2019-05-09T00:37:09.569Z,78.85
2019-05-09T00:39:37.971Z,78.53
2019-05-09T00:42:07.997Z,78.36
2019-05-09T00:44:53.340Z,78.51
2019-05-09T00:47:23.996Z,78.69
2019-05-09T00:49:55.166Z,78.54
2019-05-09T00:52:23.599Z,78.41
2019-05-09T00:54:57.518Z,78.92
2019-05-09T00:57:34.767Z,79.01
2019-05-09T01:00:14.537Z,79.39
2019-05-09T01:02:43.541Z,79.25
2019-05-09T01:05:13.296Z,78.62
2019-05-09T01:07:43.089Z,79.16
2019-05-09T01:10:13.362Z,78.77
2019-05-09T01:12:43.497Z,78.65
2019-05-09T01:15:13.351Z,78.44
2019-05-09T01:17:44.037Z,79.04
2019-05-09T01:20:14.568Z,79.92
2019-05-09T01:22:43.642Z,79.57
2019-05-09T01:25:13.455Z,79.06
2019-05-09T01:27:43.184Z,78.62
2019-05-09T01:30:13.543Z,79.20
2019-05-09T01:32:49.834Z,79.31
2019-05-09T01:35:18.240Z,78.98
2019-05-09T01:37:46.648Z,79.19
2019-05-09T01:40:17.775Z,79.13
2019-05-09T01:42:45.323Z,78.72
2019-05-09T01:45:14.220Z,78.73
2019-05-09T01:47:43.079Z,78.92
2019-05-09T01:50:14.248Z,79.25
2019-05-09T01:52:43.785Z,79.67
2019-05-09T01:55:23.478Z,79.62
2019-05-09T01:57:54.408Z,79.29
2019-05-09T02:00:23.954Z,79.49
2019-05-09T02:02:54.091Z,79.41
2019-05-09T02:05:24.067Z,78.94
2019-05-09T02:07:55.358Z,79.16
2019-05-09T02:10:23.777Z,79.36
2019-05-09T02:12:53.812Z,79.60
2019-05-09T02:15:43.465Z,79.43
2019-05-09T02:18:16.203Z,79.22
2019-05-09T02:20:44.619Z,79.36
2019-05-09T02:23:13.979Z,79.01
2019-05-09T02:25:43.823Z,79.13
2019-05-09T02:28:14.149Z,79.42
2019-05-09T02:30:45.005Z,79.44
2019-05-09T02:33:14.594Z,79.36
2019-05-09T02:35:55.863Z,79.40
2019-05-09T02:38:14.279Z,79.40
2019-05-09T02:40:43.219Z,79.33
2019-05-09T02:43:11.640Z,79.59
2019-05-09T02:45:49.352Z,79.77
2019-05-09T02:48:15.004Z,80.00
2019-05-09T02:50:43.430Z,79.90
2019-05-09T02:53:18.718Z,79.75
2019-05-09T02:55:49.197Z,79.62
2019-05-09T02:58:21.386Z,79.42
2019-05-09T03:00:51.440Z,79.46
2019-05-09T03:03:21.514Z,79.17
2019-05-09T03:05:59.647Z,79.06
2019-05-09T03:08:31.541Z,78.89
2019-05-09T03:11:00.036Z,79.29
2019-05-09T03:13:29.241Z,79.41
2019-05-09T03:15:59.518Z,79.52
2019-05-09T03:18:28.700Z,79.88
2019-05-09T03:21:08.790Z,80.03
2019-05-09T03:23:34.564Z,80.03
2019-05-09T03:26:09.135Z,80.48
2019-05-09T03:28:38.864Z,80.39
2019-05-09T03:31:11.962Z,80.42
2019-05-09T03:33:42.970Z,80.28
2019-05-09T03:36:13.120Z,80.62
2019-05-09T03:38:41.473Z,80.60
2019-05-09T03:41:09.894Z,80.52
2019-05-09T03:43:42.914Z,80.14
2019-05-09T03:46:28.076Z,80.43
2019-05-09T03:49:04.454Z,80.38
2019-05-09T03:51:33.792Z,80.63
2019-05-09T03:54:02.212Z,80.36
2019-05-09T03:56:43.822Z,80.24
2019-05-09T03:59:12.226Z,80.67
2019-05-09T04:01:40.658Z,80.44
2019-05-09T04:04:12.584Z,80.48
2019-05-09T04:06:41.007Z,79.82
2019-05-09T04:09:09.455Z,79.78
2019-05-09T04:11:38.260Z,79.63
2019-05-09T04:14:11.977Z,79.56
2019-05-09T04:16:40.382Z,79.61
2019-05-09T04:19:17.356Z,79.63
2019-05-09T04:21:45.159Z,79.99
2019-05-09T04:24:13.835Z,80.16
2019-05-09T04:26:44.575Z,79.96
2019-05-09T04:29:18.451Z,79.84
2019-05-09T04:31:50.975Z,79.50
2019-05-09T04:34:19.403Z,79.36
2019-05-09T04:36:48.446Z,78.55
2019-05-09T04:39:23.402Z,78.59
2019-05-09T04:41:48.663Z,78.12
2019-05-09T04:44:38.269Z,78.02
2019-05-09T04:47:08.684Z,77.19
2019-05-09T04:49:40.967Z,76.55
2019-05-09T04:52:07.727Z,76.05
2019-05-09T04:54:38.250Z,75.78
2019-05-09T04:57:07.752Z,75.40
2019-05-09T04:59:37.372Z,74.92
2019-05-09T05:02:42.970Z,74.55
2019-05-09T05:05:12.627Z,73.96
2019-05-09T05:07:41.063Z,71.52
2019-05-09T05:10:09.738Z,70.00
2019-05-09T05:12:38.766Z,68.21
2019-05-09T05:15:09.743Z,66.71
2019-05-09T05:17:38.187Z,65.10
2019-05-09T05:20:11.937Z,64.16
2019-05-09T05:22:42.008Z,63.47
2019-05-09T05:25:10.506Z,62.82
2019-05-09T05:27:41.573Z,61.30
2019-05-09T05:30:14.167Z,60.05
2019-05-09T05:32:44.244Z,58.57
2019-05-09T05:35:34.168Z,58.10
2019-05-09T05:38:08.513Z,59.47
2019-05-09T05:40:43.493Z,58.44
2019-05-09T05:43:08.752Z,59.84
2019-05-09T05:45:38.587Z,60.91
2019-05-09T05:48:10.912Z,60.10
2019-05-09T05:50:39.372Z,60.68
2019-05-09T05:53:08.022Z,62.48
2019-05-09T05:55:37.955Z,63.67
2019-05-09T05:58:08.634Z,65.70
2019-05-09T06:00:37.751Z,66.61
2019-05-09T06:03:08.579Z,67.51
2019-05-09T06:05:38.337Z,69.55
2019-05-09T06:08:08.183Z,70.39
2019-05-09T06:10:40.639Z,69.57
2019-05-09T06:13:11.797Z,70.30
2019-05-09T06:15:42.709Z,70.93
2019-05-09T06:18:13.643Z,70.99
2019-05-09T06:20:45.818Z,72.05
2019-05-09T06:23:17.432Z,72.39
2019-05-09T06:25:48.606Z,72.19
2019-05-09T06:28:19.576Z,72.95
2019-05-09T06:30:47.992Z,72.87
2019-05-09T06:33:18.065Z,73.89
2019-05-09T06:35:52.356Z,73.16
2019-05-09T06:38:20.777Z,73.55
2019-05-09T06:40:49.293Z,74.06
2019-05-09T06:43:29.044Z,74.06
2019-05-09T06:46:29.184Z,75.18
2019-05-09T06:49:24.351Z,74.25
2019-05-09T06:51:42.065Z,74.38
2019-05-09T06:54:10.503Z,73.65
2019-05-09T06:56:38.914Z,73.05
2019-05-09T06:59:07.728Z,73.25
2019-05-09T07:01:37.902Z,72.65
2019-05-09T07:04:24.824Z,73.66
2019-05-09T07:06:54.603Z,72.54
2019-05-09T07:09:33.576Z,72.52
2019-05-09T07:12:02.970Z,73.09
2019-05-09T07:14:37.559Z,73.48
2019-05-09T07:17:03.255Z,71.84
2019-05-09T07:19:31.882Z,70.00
2019-05-09T07:22:02.205Z,68.54
2019-05-09T07:24:31.097Z,65.56
2019-05-09T07:26:59.576Z,64.14
2019-05-09T07:29:29.646Z,62.70
2019-05-09T07:32:14.737Z,61.00
2019-05-09T07:34:44.787Z,61.49
2019-05-09T07:37:13.199Z,61.96
2019-05-09T07:39:41.610Z,63.33
2019-05-09T07:42:13.690Z,62.96
2019-05-09T07:44:49.589Z,63.17
2019-05-09T07:47:17.739Z,58.99
2019-05-09T07:49:48.130Z,58.34
2019-05-09T07:52:18.786Z,59.86
2019-05-09T07:54:48.321Z,59.01
2019-05-09T07:57:28.582Z,58.42
2019-05-09T08:00:03.342Z,57.57
2019-05-09T08:02:32.855Z,59.18
2019-05-09T08:05:01.277Z,59.79
2019-05-09T08:07:29.702Z,58.65
2019-05-09T08:09:58.186Z,61.88
2019-05-09T08:12:28.423Z,62.87
2019-05-09T08:15:10.151Z,64.51
2019-05-09T08:17:28.626Z,64.07
2019-05-09T08:19:58.377Z,65.16
2019-05-09T08:22:31.837Z,66.11
2019-05-09T08:24:57.710Z,64.82
2019-05-09T08:27:30.056Z,63.98
2019-05-09T08:29:58.362Z,65.12
2019-05-09T08:32:28.635Z,64.42
2019-05-09T08:34:57.832Z,64.15
2019-05-09T08:37:28.289Z,63.70
2019-05-09T08:39:57.902Z,63.82
2019-05-09T08:42:26.366Z,61.72
2019-05-09T08:44:54.800Z,61.52
2019-05-09T08:47:23.209Z,60.66
2019-05-09T08:49:53.290Z,59.60
2019-05-09T08:52:22.231Z,59.31
2019-05-09T08:54:59.579Z,58.60
2019-05-09T08:57:28.879Z,56.45
2019-05-09T08:59:59.006Z,54.87
2019-05-09T09:02:30.190Z,57.62
2019-05-09T09:04:58.704Z,56.62
2019-05-09T09:07:29.674Z,56.20
2019-05-09T09:09:57.869Z,60.22
2019-05-09T09:12:33.797Z,59.54
2019-05-09T09:14:58.578Z,59.91
2019-05-09T09:17:29.265Z,58.16
2019-05-09T09:19:58.376Z,58.44
2019-05-09T09:22:28.396Z,58.64
2019-05-09T09:24:58.678Z,59.11
2019-05-09T09:27:27.990Z,58.98
2019-05-09T09:29:58.525Z,60.41
2019-05-09T09:32:28.077Z,59.85
2019-05-09T09:35:00.496Z,56.36
2019-05-09T09:37:44.976Z,56.36
2019-05-09T09:40:01.834Z,54.86
2019-05-09T09:42:30.311Z,55.84
2019-05-09T09:44:58.813Z,54.92
2019-05-09T09:47:31.017Z,54.92
2019-05-09T09:50:00.543Z,55.98
2019-05-09T09:52:34.137Z,54.61
2019-05-09T09:54:59.196Z,55.72
2019-05-09T09:57:28.847Z,55.59
2019-05-09T10:00:14.373Z,55.44
2019-05-09T10:02:42.837Z,55.20
2019-05-09T10:05:14.986Z,56.15
2019-05-09T10:07:44.655Z,55.47
2019-05-09T10:10:18.443Z,55.06
2019-05-09T10:12:49.346Z,53.56
2019-05-09T10:15:22.160Z,53.12
2019-05-09T10:18:01.024Z,53.32
2019-05-09T10:20:39.605Z,53.25
2019-05-09T10:23:18.286Z,52.90
2019-05-09T10:25:43.873Z,53.26
2019-05-09T10:28:12.299Z,52.42
2019-05-09T10:30:43.359Z,52.12
2019-05-09T10:33:18.565Z,53.26
2019-05-09T10:35:47.925Z,53.44
2019-05-09T10:38:20.295Z,53.87
2019-05-09T10:40:48.579Z,53.24
2019-05-09T10:43:37.612Z,52.89
2019-05-09T10:46:19.273Z,53.86
2019-05-09T10:48:48.690Z,54.23
2019-05-09T10:51:18.550Z,52.37
2019-05-09T10:53:48.123Z,56.60
2019-05-09T10:56:18.827Z,53.10
2019-05-09T10:58:48.188Z,53.18
2019-05-09T11:01:18.557Z,51.98
2019-05-09T11:03:48.241Z,49.46
2019-05-09T11:06:18.394Z,51.24
2019-05-09T11:08:47.818Z,52.63
2019-05-09T11:11:18.182Z,49.93
2019-05-09T11:13:48.172Z,50.86
2019-05-09T11:16:18.682Z,49.68
2019-05-09T11:18:48.641Z,48.49
2019-05-09T11:21:28.609Z,47.34
2019-05-09T11:24:01.354Z,50.66
2019-05-09T11:26:33.644Z,50.60
2019-05-09T11:29:02.046Z,48.31
2019-05-09T11:31:30.462Z,49.75
2019-05-09T11:34:05.214Z,49.33
2019-05-09T11:36:33.593Z,49.01
2019-05-09T11:39:02.259Z,48.83
2019-05-09T11:44:30.878Z,50.48
2019-05-09T11:47:01.687Z,50.19
2019-05-09T11:49:39.115Z,49.11
2019-05-09T11:52:08.401Z,50.92
2019-05-09T11:54:38.829Z,51.75
2019-05-09T11:57:07.647Z,51.89
2019-05-09T11:59:37.954Z,50.26
2019-05-09T12:02:08.848Z,50.86
2019-05-09T12:04:37.995Z,46.50
2019-05-09T12:07:07.919Z,45.31
2019-05-09T12:09:38.508Z,45.02
2019-05-09T12:12:06.591Z,44.37
2019-05-09T12:14:35.003Z,42.48
2019-05-09T12:17:08.324Z,40.92
2019-05-09T12:19:38.065Z,41.98
2019-05-09T12:22:10.413Z,42.94
2019-05-09T12:24:38.867Z,43.61
2019-05-09T12:27:08.852Z,43.13
2019-05-09T12:29:38.712Z,43.43
2019-05-09T12:32:11.090Z,43.33
2019-05-09T12:34:39.499Z,44.75
2019-05-09T12:37:09.516Z,45.84
2019-05-09T12:39:38.685Z,47.24
2019-05-09T12:42:08.850Z,48.57
2019-05-09T12:44:37.325Z,46.15
2019-05-09T12:47:05.768Z,49.00
2019-05-09T12:49:34.219Z,47.44
2019-05-09T12:52:10.389Z,43.93
2019-05-09T12:54:38.856Z,43.60
2019-05-09T12:57:08.113Z,44.95
2019-05-09T12:59:48.584Z,46.87
2019-05-09T13:02:09.458Z,42.88
2019-05-09T13:04:47.728Z,44.19
2019-05-09T13:07:11.827Z,43.87
2019-05-09T13:09:41.048Z,43.03
2019-05-09T13:12:10.479Z,45.27
2019-05-09T13:14:38.909Z,49.03
2019-05-09T13:17:14.578Z,47.84
2019-05-09T13:19:48.165Z,47.66
2019-05-09T13:22:18.554Z,49.52
2019-05-09T13:24:47.550Z,48.84
2019-05-09T13:27:18.972Z,46.21
2019-05-09T13:29:52.657Z,46.45
2019-05-09T13:32:28.013Z,45.81
2019-05-09T13:35:09.956Z,45.07
2019-05-09T13:37:44.732Z,44.13
2019-05-09T13:40:18.576Z,43.18
2019-05-09T13:42:48.744Z,43.84
2019-05-09T13:45:23.782Z,41.54
2019-05-09T13:47:52.239Z,40.03
2019-05-09T13:50:23.174Z,41.98
2019-05-09T13:52:55.591Z,43.08
2019-05-09T13:55:24.065Z,40.33
2019-05-09T13:57:57.566Z,43.95
2019-05-09T14:00:28.460Z,44.48
2019-05-09T14:02:56.497Z,41.95
2019-05-09T14:05:29.155Z,42.63
2019-05-09T14:08:04.371Z,42.92
2019-05-09T14:10:33.971Z,41.94
2019-05-09T14:13:09.772Z,41.69
2019-05-09T14:15:32.510Z,41.88
2019-05-09T14:18:00.927Z,40.58
2019-05-09T14:20:29.315Z,41.84
2019-05-09T14:23:01.347Z,41.26
2019-05-09T14:25:29.779Z,38.33
2019-05-09T14:27:58.176Z,37.13
2019-05-09T14:30:29.310Z,38.98
2019-05-09T14:33:04.565Z,40.71
2019-05-09T14:35:34.433Z,39.22
2019-05-09T14:38:03.057Z,40.54
2019-05-09T14:40:31.537Z,37.00
2019-05-09T14:43:04.068Z,39.59
2019-05-09T14:45:30.091Z,41.99
2019-05-09T14:47:58.839Z,40.88
2019-05-09T14:50:28.502Z,42.17
2019-05-09T14:52:58.425Z,42.15
2019-05-09T14:55:30.887Z,41.31
2019-05-09T14:57:59.295Z,41.08
2019-05-09T15:00:27.802Z,40.50
2019-05-09T15:02:58.128Z,42.66
2019-05-09T15:05:27.891Z,42.46
2019-05-09T15:07:59.245Z,41.89
2019-05-09T15:10:27.710Z,42.41
2019-05-09T15:12:58.385Z,41.29
2019-05-09T15:15:32.044Z,40.55
2019-05-09T15:17:58.430Z,41.92
2019-05-09T15:20:28.078Z,42.27
2019-05-09T15:22:58.664Z,41.14
2019-05-09T15:25:28.131Z,41.39
2019-05-09T15:27:58.016Z,39.30
2019-05-09T15:30:28.719Z,40.84
2019-05-09T15:32:58.546Z,41.90
2019-05-09T15:35:28.133Z,42.27
2019-05-09T15:37:59.006Z,44.31
2019-05-09T15:40:28.170Z,41.79
2019-05-09T15:42:58.894Z,40.89
2019-05-09T15:45:28.635Z,43.33
2019-05-09T15:47:58.315Z,42.68
2019-05-09T15:50:29.411Z,43.79
2019-05-09T15:53:00.555Z,44.09
2019-05-09T15:55:30.819Z,46.03
2019-05-09T15:58:01.389Z,44.37
2019-05-09T16:00:33.600Z,45.18
2019-05-09T16:03:02.024Z,46.11
2019-05-09T16:05:35.000Z,46.89
2019-05-09T16:08:03.396Z,47.65
2019-05-09T16:10:31.829Z,47.70
2019-05-09T16:13:00.248Z,48.97
2019-05-09T16:15:32.418Z,48.95
2019-05-09T16:18:00.818Z,49.71
2019-05-09T16:20:41.050Z,50.49
2019-05-09T16:23:08.489Z,50.00
2019-05-09T16:25:40.550Z,50.19
2019-05-09T16:28:08.997Z,49.95
2019-05-09T16:30:39.948Z,50.09
2019-05-09T16:33:08.243Z,49.58
2019-05-09T16:35:39.623Z,50.34
2019-05-09T16:38:10.840Z,50.38
2019-05-09T16:40:38.740Z,50.35
2019-05-09T16:43:09.077Z,50.86
2019-05-09T16:45:38.038Z,51.51
2019-05-09T16:48:11.408Z,51.13
2019-05-09T16:50:41.894Z,52.17
2019-05-09T16:53:09.006Z,52.34
2019-05-09T16:55:39.441Z,51.18
2019-05-09T16:58:08.691Z,52.36
2019-05-09T17:00:47.664Z,51.73
2019-05-09T17:03:19.057Z,52.05
2019-05-09T17:05:50.089Z,53.04
2019-05-09T17:08:18.514Z,53.33
2019-05-09T17:10:49.691Z,52.87
2019-05-09T17:13:18.646Z,53.29
2019-05-09T17:15:48.407Z,53.97
2019-05-09T17:18:18.946Z,52.77
2019-05-09T17:20:48.612Z,52.94
2019-05-09T17:23:22.094Z,52.90
2019-05-09T17:25:57.952Z,52.94
2019-05-09T17:28:28.483Z,53.74
2019-05-09T17:30:57.922Z,51.78
2019-05-09T17:33:28.774Z,50.90
2019-05-09T17:35:57.748Z,51.50
2019-05-09T17:38:27.909Z,52.04
2019-05-09T17:40:57.690Z,51.07
2019-05-09T17:43:27.890Z,51.76
2019-05-09T17:45:58.392Z,50.52
2019-05-09T17:48:28.514Z,51.18
2019-05-09T17:50:59.832Z,50.76
2019-05-09T17:53:33.193Z,51.18
2019-05-09T17:55:59.571Z,51.64
2019-05-09T17:58:33.408Z,51.74
2019-05-09T18:01:01.982Z,50.74
2019-05-09T18:03:32.757Z,51.53
2019-05-09T18:06:09.605Z,51.93
2019-05-09T18:08:38.009Z,51.81
2019-05-09T18:11:09.195Z,52.43
2019-05-09T18:13:38.591Z,53.09
2019-05-09T18:16:06.955Z,52.88
2019-05-09T18:18:35.588Z,52.62
2019-05-09T18:21:05.370Z,53.18
2019-05-09T18:23:33.852Z,53.74
2019-05-09T18:26:03.866Z,53.82
2019-05-09T18:28:32.328Z,54.58
2019-05-09T18:31:00.789Z,55.29
2019-05-09T18:33:30.829Z,55.63
2019-05-09T18:35:59.246Z,55.92
2019-05-09T18:38:33.237Z,56.14
2019-05-09T18:41:02.201Z,57.05
2019-05-09T18:43:31.351Z,58.66
2019-05-09T18:46:08.394Z,59.93
2019-05-09T18:48:41.892Z,59.10
2019-05-09T18:51:10.761Z,58.93
2019-05-09T18:53:44.378Z,59.83
2019-05-09T18:56:12.788Z,59.63
2019-05-09T18:58:42.156Z,60.17
2019-05-09T19:01:14.283Z,61.73
2019-05-09T19:03:42.692Z,62.18
2019-05-09T19:06:12.852Z,63.49
2019-05-09T19:08:42.474Z,63.24
2019-05-09T19:11:11.092Z,63.27
2019-05-09T19:13:43.358Z,63.11
2019-05-09T19:16:22.425Z,63.42
2019-05-09T19:18:54.105Z,62.80
2019-05-09T19:21:24.165Z,62.98
2019-05-09T19:23:54.498Z,63.49
2019-05-09T19:26:37.919Z,63.83
2019-05-09T19:29:08.479Z,63.67
2019-05-09T19:31:37.464Z,63.80
2019-05-09T19:34:06.999Z,62.92
2019-05-09T19:36:35.645Z,63.42
2019-05-09T19:39:13.194Z,63.93
2019-05-09T19:41:48.410Z,63.94
2019-05-09T19:44:20.512Z,64.21
2019-05-09T19:46:49.808Z,63.59
2019-05-09T19:49:22.026Z,63.52
2019-05-09T19:51:52.545Z,62.77
2019-05-09T19:54:21.932Z,64.71
2019-05-09T19:56:52.853Z,64.21
2019-05-09T19:59:24.612Z,64.92
2019-05-09T20:01:53.032Z,65.18
2019-05-09T20:04:21.459Z,65.81
2019-05-09T20:06:49.871Z,65.59
2019-05-09T20:09:22.610Z,64.71
2019-05-09T20:11:57.625Z,64.82
2019-05-09T20:14:30.382Z,65.35
2019-05-09T20:16:58.927Z,65.10
2019-05-09T20:19:27.368Z,65.73
2019-05-09T20:21:55.792Z,65.84
2019-05-09T20:24:25.317Z,65.29
2019-05-09T20:27:00.135Z,65.38
2019-05-09T20:29:32.210Z,65.63
2019-05-09T20:32:00.633Z,66.50
2019-05-09T20:34:29.038Z,66.66
2019-05-09T20:37:01.119Z,66.87
2019-05-09T20:39:31.011Z,66.39
2019-05-09T20:42:03.252Z,67.46
2019-05-09T20:44:54.993Z,66.95
2019-05-09T20:47:29.676Z,66.75
2019-05-09T20:50:09.797Z,65.60
2019-05-09T20:53:08.474Z,67.39
2019-05-09T20:55:41.223Z,66.53
2019-05-09T20:58:10.864Z,66.47
2019-05-09T21:00:41.961Z,68.23
2019-05-09T21:03:14.288Z,68.84
2019-05-09T21:05:45.359Z,69.07
2019-05-09T21:08:18.984Z,69.37
2019-05-09T21:10:53.814Z,69.88
2019-05-09T21:13:22.368Z,69.72
2019-05-09T21:15:53.478Z,68.95
2019-05-09T21:18:26.313Z,70.28
2019-05-09T21:21:08.089Z,71.57
2019-05-09T21:23:39.660Z,70.87
2019-05-09T21:26:07.110Z,71.91
2019-05-09T21:28:35.760Z,72.05
2019-05-09T21:31:07.377Z,71.76
2019-05-09T21:33:39.726Z,71.50
2019-05-09T21:36:14.466Z,72.40
2019-05-09T21:38:46.721Z,73.37
2019-05-09T21:41:14.642Z,73.41
2019-05-09T21:43:44.125Z,72.73
2019-05-09T21:46:13.753Z,72.24
2019-05-09T21:48:42.642Z,73.16
2019-05-09T21:51:23.731Z,73.12
2019-05-09T21:53:52.231Z,73.19
2019-05-09T21:56:21.131Z,73.48
2019-05-09T21:58:49.653Z,73.56
2019-05-09T22:01:23.728Z,73.22
2019-05-09T22:03:52.579Z,72.66
2019-05-09T22:06:21.294Z,72.55
2019-05-09T22:08:49.847Z,72.85
2019-05-09T22:11:18.459Z,73.08
2019-05-09T22:13:53.287Z,72.77
2019-05-09T22:16:22.245Z,73.46
2019-05-09T22:18:55.024Z,73.55
2019-05-09T22:21:23.824Z,74.32
2019-05-09T22:23:56.575Z,74.24
2019-05-09T22:26:26.639Z,74.21
2019-05-09T22:28:55.215Z,74.24
2019-05-09T22:31:26.773Z,75.23
2019-05-09T22:33:56.868Z,75.09
2019-05-09T22:36:25.418Z,75.07
2019-05-09T22:38:54.002Z,74.82
2019-05-09T22:41:24.026Z,74.26
2019-05-09T22:43:52.836Z,73.56
2019-05-09T22:46:27.508Z,73.88
2019-05-09T22:48:56.112Z,73.66
2019-05-09T22:51:24.679Z,74.09
2019-05-09T22:53:53.219Z,74.23
2019-05-09T22:56:22.722Z,74.24
2019-05-09T22:58:52.336Z,75.03
2019-05-09T23:01:20.911Z,74.70
2019-05-09T23:03:52.184Z,75.17
2019-05-09T23:06:28.489Z,75.53
2019-05-09T23:08:55.780Z,75.25
2019-05-09T23:11:26.988Z,75.30
2019-05-09T23:13:56.026Z,75.26
2019-05-09T23:16:27.493Z,75.36
2019-05-09T23:18:56.131Z,74.98
2019-05-09T23:21:27.470Z,74.79
2019-05-09T23:24:00.708Z,74.46
2019-05-09T23:26:29.459Z,74.18
2019-05-09T23:29:02.004Z,74.38
2019-05-09T23:31:32.399Z,73.68
2019-05-09T23:34:00.965Z,72.63
2019-05-09T23:36:31.599Z,72.41
2019-05-09T23:39:21.455Z,72.72
2019-05-09T23:41:53.459Z,73.03
2019-05-09T23:44:28.409Z,73.44
2019-05-09T23:46:57.211Z,72.53
2019-05-09T23:49:32.374Z,72.56
2019-05-09T23:52:03.218Z,72.00
2019-05-09T23:54:53.914Z,72.31
2019-05-09T23:57:39.619Z,73.01
